Smokey Hill High School (Aurora), Colorado
Current Conditions -  °F | °C
As of 10:53 AM on Friday 24 Oct 2014 (Local Time) from KAPA Reporting Station
Broken Clouds Broken Clouds  
Wind Chill: 70°   Ceiling: 20000
Heat Index: 70°   Visibility: 10mi
Dew Point: 25°   Wind: 9mph
Humidity: 18%   Direction: 220°SW
Pressure: 30.23"   Gusts: NA
Location:  39.6262°N, 104.8012°W
Report Text: KAPA 241653Z 22008KT 10SM FEW150 BKN200 21/M04 A3023 RMK AO2 SLP183 ACSL DSNT NW T02111039
Loading
Personal Weather Stations






























Interactive Weather Map
Tropical Storm Tracking
New forecast layout! Learn more

10-Day Weather Forecast

Advertisements
Track Severe Weather on mobile